createdAt,value
2023-03-05T00:00:48.516Z,8.05
2023-03-05T00:03:14.785Z,7.63
2023-03-05T00:05:40.710Z,5.40
2023-03-05T00:08:07.015Z,4.97
2023-03-05T00:10:32.895Z,6.05
2023-03-05T00:12:58.904Z,4.03
2023-03-05T00:15:24.851Z,5.28
2023-03-05T00:17:50.654Z,6.32
2023-03-05T00:20:16.793Z,4.68
2023-03-05T00:22:43.058Z,2.55
2023-03-05T00:25:09.151Z,2.40
2023-03-05T00:27:35.028Z,4.63
2023-03-05T00:30:01.123Z,8.98
2023-03-05T00:32:26.961Z,4.32
2023-03-05T00:34:52.928Z,5.00
2023-03-05T00:37:18.826Z,4.57
2023-03-05T00:39:44.715Z,4.47
2023-03-05T00:42:10.537Z,4.40
2023-03-05T00:44:36.437Z,5.80
2023-03-05T00:47:02.314Z,2.85
2023-03-05T00:49:28.151Z,3.30
2023-03-05T00:51:54.442Z,3.75
2023-03-05T00:54:20.331Z,8.57
2023-03-05T00:56:46.882Z,7.28
2023-03-05T00:59:13.059Z,3.92
2023-03-05T01:01:39.248Z,2.53
2023-03-05T01:04:05.110Z,4.45
2023-03-05T01:06:30.988Z,4.18
2023-03-05T01:08:56.989Z,3.10
2023-03-05T01:11:22.895Z,3.85
2023-03-05T01:13:48.743Z,5.07
2023-03-05T01:16:14.760Z,5.43
2023-03-05T01:18:40.804Z,4.93
2023-03-05T01:21:07.151Z,5.32
2023-03-05T01:23:34.964Z,3.97
2023-03-05T01:26:00.889Z,3.22
2023-03-05T01:28:27.727Z,2.88
2023-03-05T01:30:53.562Z,2.75
2023-03-05T01:33:19.457Z,8.73
2023-03-05T01:35:47.617Z,5.85
2023-03-05T01:38:14.506Z,8.98
2023-03-05T01:40:42.104Z,4.20
2023-03-05T01:43:22.648Z,7.35
2023-03-05T01:46:30.512Z,3.05
2023-03-05T01:49:02.256Z,7.50
2023-03-05T01:51:32.525Z,5.22
2023-03-05T01:54:00.078Z,8.77
2023-03-05T01:56:28.466Z,8.80
2023-03-05T01:59:02.457Z,9.35
2023-03-05T02:01:40.165Z,12.80
2023-03-05T02:04:08.599Z,10.70
2023-03-05T02:06:34.836Z,12.50
2023-03-05T02:09:00.679Z,11.10
2023-03-05T02:11:26.604Z,8.52
2023-03-05T02:13:52.533Z,12.40
2023-03-05T02:16:18.533Z,15.90
2023-03-05T02:18:44.573Z,16.90
2023-03-05T02:21:11.103Z,16.42
2023-03-05T02:23:38.092Z,12.73
2023-03-05T02:26:09.753Z,16.67
2023-03-05T02:28:56.405Z,15.20
2023-03-05T02:31:24.473Z,15.00
2023-03-05T02:33:51.186Z,16.20
2023-03-05T02:36:18.115Z,14.05
2023-03-05T02:38:45.100Z,19.40
2023-03-05T02:41:11.718Z,17.13
2023-03-05T02:43:37.851Z,12.00
2023-03-05T02:46:04.329Z,15.88
2023-03-05T02:48:30.632Z,19.48
2023-03-05T02:50:57.278Z,14.73
2023-03-05T02:53:23.207Z,15.38
2023-03-05T02:55:49.471Z,17.17
2023-03-05T02:58:16.187Z,15.40
2023-03-05T03:00:42.603Z,15.63
2023-03-05T03:03:08.953Z,12.43
2023-03-05T03:05:35.772Z,18.00
2023-03-05T03:08:02.368Z,14.20
2023-03-05T03:10:28.254Z,14.43
2023-03-05T03:12:54.092Z,18.20
2023-03-05T03:15:20.611Z,14.80
2023-03-05T03:17:46.575Z,16.13
2023-03-05T03:20:14.845Z,14.88
2023-03-05T03:22:41.504Z,13.40
2023-03-05T03:25:07.809Z,16.17
2023-03-05T03:27:33.704Z,15.07
2023-03-05T03:30:04.212Z,27.45
2023-03-05T03:32:31.036Z,18.27
2023-03-05T03:34:57.199Z,12.30
2023-03-05T03:37:23.292Z,14.02
2023-03-05T03:39:49.245Z,14.77
2023-03-05T03:42:20.976Z,13.02
2023-03-05T03:44:47.709Z,11.30
2023-03-05T03:47:13.560Z,11.77
2023-03-05T03:49:39.607Z,10.13
2023-03-05T03:52:05.942Z,11.60
2023-03-05T03:54:32.278Z,10.98
2023-03-05T03:56:58.223Z,10.45
2023-03-05T03:59:24.099Z,23.35
2023-03-05T04:01:50.025Z,14.27
2023-03-05T04:04:16.038Z,11.93
2023-03-05T04:06:42.467Z,15.88
2023-03-05T04:09:08.799Z,12.20
2023-03-05T04:11:36.530Z,15.20
2023-03-05T04:14:03.687Z,14.95
2023-03-05T04:16:29.555Z,11.30
2023-03-05T04:18:55.450Z,8.48
2023-03-05T04:21:21.297Z,9.65
2023-03-05T04:23:47.289Z,9.88
2023-03-05T04:26:13.189Z,6.18
2023-03-05T04:28:39.100Z,5.80
2023-03-05T04:31:04.995Z,8.68
2023-03-05T04:33:31.018Z,9.70
2023-03-05T04:35:57.170Z,10.05
2023-03-05T04:38:23.267Z,5.90
2023-03-05T04:40:49.049Z,5.65
2023-03-05T04:43:14.960Z,8.88
2023-03-05T04:45:41.937Z,7.32
2023-03-05T04:48:10.034Z,10.95
2023-03-05T04:50:36.062Z,5.45
2023-03-05T04:53:02.672Z,6.40
2023-03-05T04:55:28.727Z,8.85
2023-03-05T04:57:54.810Z,6.45
2023-03-05T05:00:21.092Z,9.10
2023-03-05T05:02:49.384Z,10.48
2023-03-05T05:05:19.206Z,13.23
2023-03-05T05:07:45.136Z,11.60
2023-03-05T05:10:12.151Z,14.68
2023-03-05T05:12:38.430Z,11.20
2023-03-05T05:15:06.981Z,15.88
2023-03-05T05:17:33.773Z,19.02
2023-03-05T05:20:00.803Z,14.15
2023-03-05T05:22:28.714Z,18.02
2023-03-05T05:24:55.141Z,15.35
2023-03-05T05:27:21.313Z,18.95
2023-03-05T05:29:49.541Z,21.95
2023-03-05T05:32:17.080Z,18.15
2023-03-05T05:34:42.928Z,14.55
2023-03-05T05:37:08.783Z,17.70
2023-03-05T05:39:34.999Z,16.42
2023-03-05T05:42:01.121Z,15.63
2023-03-05T05:44:27.290Z,18.13
2023-03-05T05:46:53.360Z,20.40
2023-03-05T05:49:19.378Z,20.45
2023-03-05T05:51:45.229Z,22.20
2023-03-05T05:54:14.815Z,21.55
2023-03-05T05:56:41.081Z,25.45
2023-03-05T05:59:07.643Z,21.30
2023-03-05T06:01:34.353Z,25.17
2023-03-05T06:04:00.579Z,22.63
2023-03-05T06:06:27.072Z,26.88
2023-03-05T06:08:53.498Z,26.17
2023-03-05T06:11:20.284Z,29.00
2023-03-05T06:13:47.748Z,25.52
2023-03-05T06:16:19.506Z,25.85
2023-03-05T06:18:45.485Z,22.73
2023-03-05T06:21:14.833Z,22.77
2023-03-05T06:23:41.438Z,22.88
2023-03-05T06:26:08.783Z,24.50
2023-03-05T06:28:38.084Z,25.85
2023-03-05T06:31:06.667Z,25.75
2023-03-05T06:33:33.103Z,29.70
2023-03-05T06:35:59.467Z,31.88
2023-03-05T06:38:25.678Z,23.58
2023-03-05T06:40:51.796Z,28.50
2023-03-05T06:43:17.730Z,28.02
2023-03-05T06:45:43.701Z,24.10
2023-03-05T06:48:10.928Z,22.05
2023-03-05T06:50:37.105Z,25.77
2023-03-05T06:53:03.521Z,29.35
2023-03-05T06:55:29.527Z,23.65
2023-03-05T06:57:55.396Z,28.35
2023-03-05T07:00:21.688Z,23.20
2023-03-05T07:02:47.593Z,24.17
2023-03-05T07:05:13.665Z,24.00
2023-03-05T07:07:39.502Z,22.48
2023-03-05T07:10:08.714Z,23.40
2023-03-05T07:12:34.771Z,21.92
2023-03-05T07:15:00.798Z,19.88
2023-03-05T07:17:27.257Z,26.52
2023-03-05T07:19:53.182Z,25.85
2023-03-05T07:22:19.232Z,23.48
2023-03-05T07:24:46.837Z,26.10
2023-03-05T07:27:12.697Z,33.05
2023-03-05T07:29:38.551Z,31.45
2023-03-05T07:32:04.856Z,27.77
2023-03-05T07:34:30.891Z,32.38
2023-03-05T07:36:56.793Z,31.77
2023-03-05T07:39:23.262Z,36.10
2023-03-05T07:41:50.793Z,34.38
2023-03-05T07:44:17.052Z,37.33
2023-03-05T07:46:43.044Z,31.83
2023-03-05T07:49:08.877Z,31.15
2023-03-05T07:51:34.982Z,32.08
2023-03-05T07:54:01.389Z,31.20
2023-03-05T07:56:34.590Z,34.17
2023-03-05T07:59:03.417Z,24.77
2023-03-05T08:01:30.388Z,29.10
2023-03-05T08:03:56.848Z,26.00
2023-03-05T08:06:22.763Z,30.60
2023-03-05T08:08:48.641Z,26.50
2023-03-05T08:11:15.743Z,27.90
2023-03-05T08:13:43.015Z,25.85
2023-03-05T08:16:12.124Z,23.98
2023-03-05T08:18:38.003Z,25.98
2023-03-05T08:21:04.454Z,23.58
2023-03-05T08:23:30.633Z,26.02
2023-03-05T08:25:56.606Z,22.13
2023-03-05T08:28:23.141Z,20.80
2023-03-05T08:30:49.086Z,31.92
2023-03-05T08:33:16.872Z,23.45
2023-03-05T08:35:43.458Z,24.35
2023-03-05T08:38:09.387Z,23.70
2023-03-05T08:40:35.245Z,27.45
2023-03-05T08:43:01.208Z,25.38
2023-03-05T08:45:27.858Z,23.73
2023-03-05T08:47:56.510Z,27.35
2023-03-05T08:50:22.915Z,21.98
2023-03-05T08:52:49.778Z,19.92
2023-03-05T08:55:15.959Z,21.27
2023-03-05T08:57:41.995Z,22.80
2023-03-05T09:00:09.659Z,17.70
2023-03-05T09:02:36.459Z,13.02
2023-03-05T09:05:03.276Z,12.90
2023-03-05T09:07:29.112Z,9.02
2023-03-05T09:09:54.971Z,8.60
2023-03-05T09:12:20.757Z,10.00
2023-03-05T09:14:46.724Z,11.13
2023-03-05T09:17:12.643Z,15.65
2023-03-05T09:19:38.520Z,11.27
2023-03-05T09:22:04.373Z,12.25
2023-03-05T09:24:30.244Z,9.88
2023-03-05T09:26:59.676Z,13.23
2023-03-05T09:29:26.897Z,11.70
2023-03-05T09:31:53.216Z,12.18
2023-03-05T09:34:19.230Z,12.45
2023-03-05T09:36:46.797Z,7.88
2023-03-05T09:39:12.661Z,7.78
2023-03-05T09:42:23.645Z,9.90
2023-03-05T09:45:01.875Z,10.63
2023-03-05T09:47:56.528Z,7.90
2023-03-05T09:50:34.105Z,10.10
2023-03-05T09:53:27.943Z,11.93
2023-03-05T09:55:55.783Z,10.80
2023-03-05T09:58:42.700Z,8.25
2023-03-05T10:01:28.437Z,9.90
2023-03-05T10:04:15.979Z,11.65
2023-03-05T10:06:44.478Z,11.57
2023-03-05T10:09:10.553Z,8.38
2023-03-05T10:12:14.834Z,9.25
2023-03-05T10:14:41.249Z,8.15
2023-03-05T10:17:40.935Z,7.47
2023-03-05T10:20:21.963Z,6.57
2023-03-05T10:23:09.885Z,7.15
2023-03-05T10:26:00.048Z,6.32
2023-03-05T10:28:35.285Z,5.75
2023-03-05T10:31:20.587Z,7.68
2023-03-05T10:34:23.318Z,6.30
2023-03-05T10:37:37.262Z,9.07
2023-03-05T10:40:31.915Z,8.77
2023-03-05T10:43:14.298Z,7.32
2023-03-05T10:45:44.857Z,14.20
2023-03-05T10:48:22.834Z,8.65
2023-03-05T10:50:53.394Z,12.38
2023-03-05T10:53:36.010Z,14.57
2023-03-05T10:56:03.794Z,16.08
2023-03-05T11:03:49.042Z,15.18
2023-03-05T11:06:15.459Z,13.05
2023-03-05T11:08:41.773Z,12.88
2023-03-05T11:11:07.570Z,13.98
2023-03-05T11:13:36.792Z,13.77
2023-03-05T11:16:06.010Z,12.25
2023-03-05T11:18:36.915Z,13.13
2023-03-05T11:21:12.756Z,13.75
2023-03-05T11:23:38.682Z,11.48
2023-03-05T11:26:07.499Z,10.85
2023-03-05T11:28:34.075Z,13.27
2023-03-05T11:31:02.228Z,14.95
2023-03-05T11:33:30.162Z,18.17
2023-03-05T11:36:33.235Z,19.85
2023-03-05T11:39:23.240Z,20.58
2023-03-05T11:42:01.198Z,24.48
2023-03-05T11:44:45.798Z,27.45
2023-03-05T11:47:17.495Z,23.65
2023-03-05T11:49:47.002Z,22.60
2023-03-05T11:52:25.840Z,28.58
2023-03-05T11:55:12.217Z,25.67
2023-03-05T11:57:52.561Z,25.23
2023-03-05T12:00:29.323Z,26.83
2023-03-05T12:03:01.736Z,25.42
2023-03-05T12:05:30.073Z,29.10
2023-03-05T12:08:00.443Z,31.55
2023-03-05T12:10:29.102Z,24.95
2023-03-05T12:13:07.179Z,27.48
2023-03-05T12:15:58.256Z,25.73
2023-03-05T12:18:33.291Z,22.85
2023-03-05T12:21:02.091Z,23.50
2023-03-05T12:23:28.139Z,20.00
2023-03-05T12:25:58.613Z,25.48
2023-03-05T12:28:33.546Z,23.67
2023-03-05T12:31:37.093Z,20.63
2023-03-05T12:34:44.647Z,23.73
2023-03-05T12:37:33.221Z,18.85
2023-03-05T12:40:00.351Z,22.88
2023-03-05T12:42:29.311Z,21.23
2023-03-05T12:45:18.593Z,21.90
2023-03-05T12:48:11.391Z,25.30
2023-03-05T12:50:37.170Z,25.23
2023-03-05T12:53:06.317Z,21.98
2023-03-05T12:55:34.298Z,22.98
2023-03-05T12:58:08.648Z,24.95
2023-03-05T13:00:43.084Z,20.83
2023-03-05T13:03:15.221Z,24.25
2023-03-05T13:05:49.680Z,24.00
2023-03-05T13:08:30.930Z,25.60
2023-03-05T13:11:00.708Z,20.55
2023-03-05T13:13:29.946Z,24.17
2023-03-05T13:15:56.598Z,21.75
2023-03-05T13:18:25.327Z,19.13
2023-03-05T13:21:06.623Z,18.63
2023-03-05T13:23:34.528Z,18.67
2023-03-05T13:26:17.985Z,12.85
2023-03-05T13:29:06.672Z,15.20
2023-03-05T13:31:34.795Z,12.30
2023-03-05T13:34:18.629Z,12.10
2023-03-05T13:37:01.380Z,14.98
2023-03-05T13:39:31.909Z,15.15
2023-03-05T13:42:01.403Z,12.25
2023-03-05T13:44:28.819Z,13.55
2023-03-05T13:47:16.833Z,9.00
2023-03-05T13:49:43.439Z,9.13
2023-03-05T13:52:10.115Z,8.38
2023-03-05T13:54:36.239Z,11.75
2023-03-05T13:57:04.840Z,11.57
2023-03-05T13:59:33.356Z,9.88
2023-03-05T14:02:02.466Z,13.15
2023-03-05T14:04:33.473Z,10.43
2023-03-05T14:07:05.672Z,11.65
2023-03-05T14:09:46.568Z,13.00
2023-03-05T14:12:37.469Z,10.50
2023-03-05T14:15:20.161Z,11.18
2023-03-05T14:17:46.477Z,11.02
2023-03-05T14:20:12.221Z,11.73
2023-03-05T14:22:44.329Z,11.50
2023-03-05T14:25:29.084Z,11.00
2023-03-05T14:27:56.555Z,11.23
2023-03-05T14:30:24.125Z,11.70
2023-03-05T14:32:53.891Z,11.93
2023-03-05T14:35:26.113Z,12.05
2023-03-05T14:37:55.726Z,13.35
2023-03-05T14:40:27.527Z,11.65
2023-03-05T14:42:55.393Z,12.15
2023-03-05T14:45:24.380Z,12.77
2023-03-05T14:47:51.665Z,12.27
2023-03-05T14:50:50.993Z,12.45
2023-03-05T14:53:30.118Z,14.75
2023-03-05T14:55:56.494Z,13.43
2023-03-05T14:58:26.755Z,15.30
2023-03-05T15:00:53.305Z,13.23
2023-03-05T15:03:20.099Z,14.07
2023-03-05T15:05:49.022Z,15.55
2023-03-05T15:08:18.211Z,14.95
2023-03-05T15:10:44.308Z,14.13
2023-03-05T15:13:12.720Z,13.95
2023-03-05T15:15:39.107Z,16.00
2023-03-05T15:18:04.953Z,15.45
2023-03-05T15:20:32.086Z,21.23
2023-03-05T15:22:58.175Z,16.88
2023-03-05T15:25:28.007Z,18.40
2023-03-05T15:27:54.005Z,20.77
2023-03-05T15:30:29.862Z,18.50
2023-03-05T15:32:57.275Z,20.05
2023-03-05T15:35:24.255Z,21.58
2023-03-05T15:37:50.895Z,19.90
2023-03-05T15:40:20.214Z,20.75
2023-03-05T15:42:47.174Z,20.55
2023-03-05T15:45:13.060Z,23.08
2023-03-05T15:47:39.070Z,20.70
2023-03-05T15:50:06.295Z,23.60
2023-03-05T15:52:32.513Z,25.90
2023-03-05T15:54:59.806Z,25.13
2023-03-05T15:57:26.497Z,24.17
2023-03-05T15:59:53.668Z,22.85
2023-03-05T16:02:19.611Z,23.13
2023-03-05T16:04:45.708Z,21.40
2023-03-05T16:07:13.907Z,20.35
2023-03-05T16:09:47.521Z,24.15
2023-03-05T16:12:18.123Z,21.45
2023-03-05T16:14:45.564Z,20.58
2023-03-05T16:17:12.794Z,20.45
2023-03-05T16:19:42.209Z,18.83
2023-03-05T16:22:08.100Z,19.75
2023-03-05T16:24:34.382Z,19.58
2023-03-05T16:27:00.245Z,17.27
2023-03-05T16:29:29.341Z,19.67
2023-03-05T16:31:56.683Z,17.27
2023-03-05T16:34:22.679Z,17.27
2023-03-05T16:36:51.912Z,16.67
2023-03-05T16:39:19.260Z,15.60
2023-03-05T16:41:47.214Z,16.08
2023-03-05T16:44:13.157Z,14.73
2023-03-05T16:46:41.191Z,17.27
2023-03-05T16:49:07.871Z,15.25
2023-03-05T16:51:34.435Z,14.18
2023-03-05T16:54:00.695Z,11.23
2023-03-05T16:56:26.791Z,12.15
2023-03-05T16:58:55.005Z,13.15
2023-03-05T17:01:22.030Z,10.52
2023-03-05T17:03:49.161Z,12.25
2023-03-05T17:06:22.431Z,9.75
2023-03-05T17:08:49.301Z,14.48
2023-03-05T17:11:15.708Z,10.15
2023-03-05T17:13:41.849Z,11.32
2023-03-05T17:16:09.604Z,8.05
2023-03-05T17:18:35.743Z,8.60
2023-03-05T17:21:03.030Z,9.00
2023-03-05T17:23:28.947Z,8.27
2023-03-05T17:25:55.011Z,10.80
2023-03-05T17:28:21.085Z,6.57
2023-03-05T17:30:47.010Z,9.30
2023-03-05T17:33:13.031Z,5.57
2023-03-05T17:35:39.170Z,7.53
2023-03-05T17:38:07.338Z,7.32
2023-03-05T17:40:33.935Z,8.00
2023-03-05T17:43:00.403Z,44.20
2023-03-05T17:45:26.650Z,7.70
2023-03-05T17:47:52.795Z,8.20
2023-03-05T17:50:19.389Z,8.02
2023-03-05T17:52:45.604Z,11.65
2023-03-05T17:55:15.125Z,9.90
2023-03-05T17:57:42.632Z,11.02
2023-03-05T18:00:23.582Z,10.43
2023-03-05T18:02:50.229Z,12.60
2023-03-05T18:05:17.866Z,13.10
2023-03-05T18:07:43.969Z,11.48
2023-03-05T18:10:11.836Z,9.73
2023-03-05T18:12:37.772Z,12.52
2023-03-05T18:15:05.558Z,11.68
2023-03-05T18:17:31.536Z,11.35
2023-03-05T18:19:57.554Z,11.40
2023-03-05T18:22:23.923Z,11.27
2023-03-05T18:24:50.000Z,11.30
2023-03-05T18:27:15.889Z,9.40
2023-03-05T18:29:41.785Z,9.80
2023-03-05T18:32:07.971Z,13.45
2023-03-05T18:34:34.164Z,10.48
2023-03-05T18:37:00.172Z,12.77
2023-03-05T18:39:28.582Z,10.23
2023-03-05T18:41:55.452Z,12.05
2023-03-05T18:44:21.794Z,10.20
2023-03-05T18:46:47.683Z,12.43
2023-03-05T18:49:13.738Z,11.52
2023-03-05T18:51:40.986Z,11.52
2023-03-05T18:54:08.016Z,11.00
2023-03-05T18:56:34.043Z,12.02
2023-03-05T18:59:00.041Z,13.13
2023-03-05T19:01:26.254Z,12.63
2023-03-05T19:03:52.445Z,11.73
2023-03-05T19:06:18.753Z,11.55
2023-03-05T19:08:45.901Z,10.98
2023-03-05T19:11:17.561Z,11.00
2023-03-05T19:13:51.060Z,11.65
2023-03-05T19:16:29.774Z,10.98
2023-03-05T19:19:14.663Z,14.80
2023-03-05T19:21:42.986Z,11.18
2023-03-05T19:24:10.560Z,11.40
2023-03-05T19:26:40.831Z,14.43
2023-03-05T19:29:07.658Z,13.05
2023-03-05T19:31:34.295Z,13.00
2023-03-05T19:34:01.071Z,13.88
2023-03-05T19:36:27.198Z,13.02
2023-03-05T19:38:53.171Z,16.52
2023-03-05T19:41:20.952Z,15.57
2023-03-05T19:43:49.068Z,16.90
2023-03-05T19:46:15.858Z,17.05
2023-03-05T19:48:42.361Z,19.17
2023-03-05T19:51:10.774Z,18.33
2023-03-05T19:53:38.444Z,16.30
2023-03-05T19:56:05.621Z,17.38
2023-03-05T19:58:32.876Z,18.13
2023-03-05T20:01:17.129Z,15.07
2023-03-05T20:03:47.769Z,22.15
2023-03-05T20:06:14.133Z,17.80
2023-03-05T20:08:40.425Z,15.25
2023-03-05T20:11:06.804Z,16.30
2023-03-05T20:13:32.866Z,16.80
2023-03-05T20:15:58.795Z,15.82
2023-03-05T20:18:24.808Z,16.90
2023-03-05T20:20:56.989Z,16.83
2023-03-05T20:23:23.889Z,18.77
2023-03-05T20:25:51.307Z,18.73
2023-03-05T20:28:17.350Z,22.77
2023-03-05T20:30:43.160Z,17.92
2023-03-05T20:33:10.244Z,20.17
2023-03-05T20:35:36.229Z,19.98
2023-03-05T20:38:28.902Z,20.70
2023-03-05T20:41:06.617Z,22.92
2023-03-05T20:43:35.244Z,21.75
2023-03-05T20:46:01.873Z,23.45
2023-03-05T20:48:33.499Z,25.50
2023-03-05T20:51:11.056Z,22.30
2023-03-05T20:53:37.182Z,23.17
2023-03-05T20:56:03.367Z,24.33
2023-03-05T20:58:29.364Z,28.20
2023-03-05T21:00:55.425Z,24.52
2023-03-05T21:03:21.349Z,30.58
2023-03-05T21:05:47.289Z,26.67
2023-03-05T21:08:13.152Z,32.88
2023-03-05T21:10:39.175Z,28.88
2023-03-05T21:13:04.996Z,27.05
2023-03-05T21:15:31.140Z,28.80
2023-03-05T21:17:57.479Z,27.25
2023-03-05T21:20:29.215Z,28.55
2023-03-05T21:22:55.840Z,30.15
2023-03-05T21:25:28.255Z,28.38
2023-03-05T21:28:05.158Z,30.27
2023-03-05T21:30:42.858Z,32.22
2023-03-05T21:33:15.709Z,35.08
2023-03-05T21:35:42.405Z,33.05
2023-03-05T21:38:09.736Z,33.70
2023-03-05T21:40:42.722Z,32.65
2023-03-05T21:43:12.288Z,33.95
2023-03-05T21:45:39.748Z,35.17
2023-03-05T21:48:06.044Z,37.40
2023-03-05T21:50:35.285Z,37.08
2023-03-05T21:53:02.447Z,32.78
2023-03-05T21:55:44.378Z,35.17
2023-03-05T21:58:10.507Z,29.73
2023-03-05T22:00:36.906Z,31.15
2023-03-05T22:03:03.198Z,31.35
2023-03-05T22:05:29.147Z,31.33
2023-03-05T22:07:56.207Z,29.10
2023-03-05T22:10:22.172Z,28.80
2023-03-05T22:13:10.075Z,30.35
2023-03-05T22:15:46.275Z,26.42
2023-03-05T22:18:13.546Z,29.15
2023-03-05T22:20:40.063Z,30.38
2023-03-05T22:23:06.032Z,26.60
2023-03-05T22:25:33.786Z,23.83
2023-03-05T22:27:59.779Z,24.40
2023-03-05T22:30:25.663Z,24.75
2023-03-05T22:32:51.612Z,23.90
2023-03-05T22:35:17.538Z,24.70
2023-03-05T22:37:43.580Z,24.13
2023-03-05T22:40:14.052Z,22.35
2023-03-05T22:42:40.632Z,23.08
2023-03-05T22:45:10.652Z,22.45
2023-03-05T22:47:36.421Z,21.98
2023-03-05T22:50:03.447Z,24.05
2023-03-05T22:52:29.278Z,24.20
2023-03-05T22:54:56.108Z,23.83
2023-03-05T22:57:22.064Z,23.92
2023-03-05T22:59:49.089Z,22.90
2023-03-05T23:02:16.268Z,26.52
2023-03-05T23:04:48.826Z,24.08
2023-03-05T23:07:21.019Z,22.88
2023-03-05T23:10:08.313Z,25.10
2023-03-05T23:12:37.222Z,23.02
2023-03-05T23:15:07.328Z,25.95
2023-03-05T23:17:33.224Z,26.35
2023-03-05T23:19:59.128Z,26.70
2023-03-05T23:22:25.039Z,27.08
2023-03-05T23:24:50.843Z,24.73
2023-03-05T23:27:17.912Z,22.98
2023-03-05T23:29:58.096Z,23.67
2023-03-05T23:32:27.385Z,25.33
2023-03-05T23:34:54.811Z,23.20
2023-03-05T23:37:20.647Z,23.27
2023-03-05T23:39:46.450Z,22.17
2023-03-05T23:42:12.301Z,20.73
2023-03-05T23:44:38.194Z,24.50
2023-03-05T23:47:03.998Z,20.23
2023-03-05T23:49:29.871Z,24.23
2023-03-05T23:51:55.668Z,21.73
2023-03-05T23:54:21.594Z,21.52
2023-03-05T23:56:47.433Z,21.58
2023-03-05T23:59:13.241Z,20.63
